Airfield :
LOGIN :

Register | Disclaimer

   EN    FR    IT 

 










Legend :    VFR   Marginal VFR   IFR   Intensive IFR   Very Intensive IFR
Visi :
Ceiling :
>= 8 km
>= 3000ft
5 to 8 km
1000 to 3000 ft
1500m to 5 km
500 to 1000 ft
800 to 1500m
200 to 500 ft
< 800m
< 200 ft
Symbols :   Thunderstorms  Fog  Heavy snow  Heavy precipitations  Wind > 20 kt
SIGMETs :     Misc.  Thunderstorms  Icing  Turbulence  Mountain Waves  Volcanic Ashes






- Airport Elevation : 228 ft
- IATA code : OPO


LPPR - Porto Fr. Sa Carneiro

CURRENT METAR :
  • 200530Z 19018KT 9999 FEW005 BKN011 BKN020 12/11 Q1003

EXPIRED METARs :
  • 200500Z 18022G34KT 9999 -RA SCT006 BKN011 OVC018 12/10 Q1003
  • 200430Z 19023KT 8000 -RA BKN005 BKN011 12/10 Q1003 RERA
  • 200400Z 20011KT 6000 RA FEW006 BKN012 BKN020 11/10 Q1004
  • 200330Z 19012KT 9000 RA SCT015 BKN038 11/10 Q1004
  • 200300Z 17020KT 9999 RA SCT008 BKN011 11/10 Q1005

TAF TAF LPPR
Valid from the 20 at 06:00 until the 21 at 06:00 UTC


200500Z 2006/2106 24017KT 9999 SCT012 BKN020
TEMPO 2006/2106 5000 SHRA SCT006 BKN012 FEW020CB
TEMPO 2006/2018 24020G33KT
PROB30
TEMPO 2008/2018 3000 TSRA SCT003 BKN006 SCT012CB
BECMG 2018/2020 25010KT



MET'MAP, your aeronautical weather chart ! - Copyright ORBIFLY December 2007 - Disclaimer

ORBIFLY MET'MAP TEAM :

Programming & Development : Alexandra Zaïnal
Concept & original design : Baudouin d'Aumeries
Assistance for programming : Marc-Olivier Méhu
Technical & hardware support : Manuel Goepfert

Contact : metmap@orbifly.com




SOURCES & CREDITS :

   NOAA